sensor_id;sensor_type;location;lat;lon;timestamp;P1;durP1;ratioP1;P2;durP2;ratioP2
20230;SDS011;10274;49.022;9.338;2022-10-04T00:01:41;0.80;;;0.80;;
20230;SDS011;10274;49.022;9.338;2022-10-04T00:04:12;0.77;;;0.77;;
20230;SDS011;10274;49.022;9.338;2022-10-04T00:06:42;1.40;;;0.93;;
20230;SDS011;10274;49.022;9.338;2022-10-04T00:09:13;1.80;;;0.93;;
20230;SDS011;10274;49.022;9.338;2022-10-04T00:11:42;1.40;;;1.30;;
20230;SDS011;10274;49.022;9.338;2022-10-04T00:14:15;1.30;;;0.97;;
20230;SDS011;10274;49.022;9.338;2022-10-04T00:16:44;2.43;;;1.03;;
20230;SDS011;10274;49.022;9.338;2022-10-04T00:19:20;1.30;;;1.17;;
20230;SDS011;10274;49.022;9.338;2022-10-04T00:30:41;1.23;;;1.00;;
20230;SDS011;10274;49.022;9.338;2022-10-04T00:33:08;1.03;;;0.93;;
20230;SDS011;10274;49.022;9.338;2022-10-04T00:35:46;1.13;;;1.10;;
20230;SDS011;10274;49.022;9.338;2022-10-04T00:38:15;2.20;;;0.80;;
20230;SDS011;10274;49.022;9.338;2022-10-04T00:40:44;0.93;;;0.93;;
20230;SDS011;10274;49.022;9.338;2022-10-04T00:43:15;0.93;;;0.83;;
20230;SDS011;10274;49.022;9.338;2022-10-04T00:45:47;0.70;;;0.70;;
20230;SDS011;10274;49.022;9.338;2022-10-04T00:51:20;1.20;;;1.10;;
20230;SDS011;10274;49.022;9.338;2022-10-04T00:53:59;0.83;;;0.83;;
20230;SDS011;10274;49.022;9.338;2022-10-04T00:56:32;1.07;;;1.00;;
20230;SDS011;10274;49.022;9.338;2022-10-04T00:59:24;0.57;;;0.57;;
20230;SDS011;10274;49.022;9.338;2022-10-04T01:01:57;1.90;;;1.30;;
20230;SDS011;10274;49.022;9.338;2022-10-04T01:04:30;1.00;;;1.00;;
20230;SDS011;10274;49.022;9.338;2022-10-04T01:07:02;1.43;;;1.00;;
20230;SDS011;10274;49.022;9.338;2022-10-04T01:09:32;1.70;;;1.20;;
20230;SDS011;10274;49.022;9.338;2022-10-04T01:12:03;1.20;;;1.07;;
20230;SDS011;10274;49.022;9.338;2022-10-04T01:14:38;1.30;;;1.20;;
20230;SDS011;10274;49.022;9.338;2022-10-04T01:17:16;1.23;;;1.13;;
20230;SDS011;10274;49.022;9.338;2022-10-04T01:19:48;0.80;;;0.80;;
20230;SDS011;10274;49.022;9.338;2022-10-04T01:22:31;1.40;;;1.30;;
20230;SDS011;10274;49.022;9.338;2022-10-04T01:25:01;1.30;;;1.20;;
20230;SDS011;10274;49.022;9.338;2022-10-04T01:27:35;1.10;;;0.97;;
20230;SDS011;10274;49.022;9.338;2022-10-04T01:30:06;0.70;;;0.70;;
20230;SDS011;10274;49.022;9.338;2022-10-04T01:32:36;1.23;;;1.13;;
20230;SDS011;10274;49.022;9.338;2022-10-04T01:35:05;0.73;;;0.73;;
20230;SDS011;10274;49.022;9.338;2022-10-04T01:37:35;1.97;;;1.10;;
20230;SDS011;10274;49.022;9.338;2022-10-04T01:40:03;2.47;;;0.97;;
20230;SDS011;10274;49.022;9.338;2022-10-04T01:42:34;1.30;;;1.03;;
20230;SDS011;10274;49.022;9.338;2022-10-04T01:45:06;2.47;;;1.20;;
20230;SDS011;10274;49.022;9.338;2022-10-04T01:47:40;1.10;;;1.00;;
20230;SDS011;10274;49.022;9.338;2022-10-04T01:50:12;1.20;;;1.00;;
20230;SDS011;10274;49.022;9.338;2022-10-04T01:52:45;1.20;;;1.10;;
20230;SDS011;10274;49.022;9.338;2022-10-04T01:55:16;1.23;;;1.00;;
20230;SDS011;10274;49.022;9.338;2022-10-04T01:57:46;1.67;;;1.40;;
20230;SDS011;10274;49.022;9.338;2022-10-04T02:00:16;1.30;;;1.13;;
20230;SDS011;10274;49.022;9.338;2022-10-04T02:02:49;1.20;;;1.10;;
20230;SDS011;10274;49.022;9.338;2022-10-04T02:05:20;0.97;;;0.90;;
20230;SDS011;10274;49.022;9.338;2022-10-04T02:07:55;2.00;;;1.50;;
20230;SDS011;10274;49.022;9.338;2022-10-04T02:10:26;0.97;;;0.83;;
20230;SDS011;10274;49.022;9.338;2022-10-04T02:12:54;1.63;;;1.23;;
20230;SDS011;10274;49.022;9.338;2022-10-04T02:15:23;1.87;;;0.97;;
20230;SDS011;10274;49.022;9.338;2022-10-04T02:17:52;1.10;;;0.83;;
20230;SDS011;10274;49.022;9.338;2022-10-04T02:20:22;1.10;;;1.00;;
20230;SDS011;10274;49.022;9.338;2022-10-04T02:22:51;0.80;;;0.80;;
20230;SDS011;10274;49.022;9.338;2022-10-04T02:25:27;1.37;;;1.17;;
20230;SDS011;10274;49.022;9.338;2022-10-04T02:27:54;1.47;;;1.17;;
20230;SDS011;10274;49.022;9.338;2022-10-04T02:30:22;1.40;;;1.30;;
20230;SDS011;10274;49.022;9.338;2022-10-04T02:32:51;1.10;;;1.00;;
20230;SDS011;10274;49.022;9.338;2022-10-04T02:35:21;0.70;;;0.70;;
20230;SDS011;10274;49.022;9.338;2022-10-04T02:37:52;1.30;;;1.20;;
20230;SDS011;10274;49.022;9.338;2022-10-04T02:40:27;1.43;;;1.33;;
20230;SDS011;10274;49.022;9.338;2022-10-04T02:42:57;1.03;;;0.97;;
20230;SDS011;10274;49.022;9.338;2022-10-04T02:45:30;1.30;;;1.20;;
20230;SDS011;10274;49.022;9.338;2022-10-04T02:48:10;1.17;;;1.07;;
20230;SDS011;10274;49.022;9.338;2022-10-04T02:50:52;1.83;;;1.10;;
20230;SDS011;10274;49.022;9.338;2022-10-04T02:53:25;1.30;;;1.10;;
20230;SDS011;10274;49.022;9.338;2022-10-04T02:55:58;1.00;;;1.00;;
20230;SDS011;10274;49.022;9.338;2022-10-04T02:58:27;1.77;;;1.23;;
20230;SDS011;10274;49.022;9.338;2022-10-04T03:00:55;1.60;;;1.50;;
20230;SDS011;10274;49.022;9.338;2022-10-04T03:03:23;1.87;;;1.37;;
20230;SDS011;10274;49.022;9.338;2022-10-04T03:05:54;1.23;;;1.13;;
20230;SDS011;10274;49.022;9.338;2022-10-04T03:08:28;1.00;;;0.90;;
20230;SDS011;10274;49.022;9.338;2022-10-04T03:10:58;1.03;;;0.97;;
20230;SDS011;10274;49.022;9.338;2022-10-04T03:13:27;1.77;;;1.33;;
20230;SDS011;10274;49.022;9.338;2022-10-04T03:15:54;0.97;;;0.87;;
20230;SDS011;10274;49.022;9.338;2022-10-04T03:18:21;1.00;;;1.00;;
20230;SDS011;10274;49.022;9.338;2022-10-04T03:20:48;1.23;;;1.13;;
20230;SDS011;10274;49.022;9.338;2022-10-04T03:23:16;1.03;;;0.97;;
20230;SDS011;10274;49.022;9.338;2022-10-04T03:25:48;1.27;;;0.97;;
20230;SDS011;10274;49.022;9.338;2022-10-04T03:28:18;1.17;;;1.07;;
20230;SDS011;10274;49.022;9.338;2022-10-04T03:30:47;0.93;;;0.93;;
20230;SDS011;10274;49.022;9.338;2022-10-04T03:33:18;1.30;;;1.20;;
20230;SDS011;10274;49.022;9.338;2022-10-04T03:35:48;1.87;;;1.17;;
20230;SDS011;10274;49.022;9.338;2022-10-04T03:38:17;1.50;;;1.23;;
20230;SDS011;10274;49.022;9.338;2022-10-04T03:40:48;0.90;;;0.90;;
20230;SDS011;10274;49.022;9.338;2022-10-04T03:43:18;0.80;;;0.80;;
20230;SDS011;10274;49.022;9.338;2022-10-04T03:45:48;0.80;;;0.80;;
20230;SDS011;10274;49.022;9.338;2022-10-04T03:48:17;0.87;;;0.80;;
20230;SDS011;10274;49.022;9.338;2022-10-04T03:50:52;1.17;;;0.87;;
20230;SDS011;10274;49.022;9.338;2022-10-04T03:53:23;0.93;;;0.90;;
20230;SDS011;10274;49.022;9.338;2022-10-04T03:56:10;0.50;;;0.50;;
20230;SDS011;10274;49.022;9.338;2022-10-04T03:58:38;0.77;;;0.77;;
20230;SDS011;10274;49.022;9.338;2022-10-04T04:01:17;0.77;;;0.77;;
20230;SDS011;10274;49.022;9.338;2022-10-04T04:03:54;1.17;;;1.07;;
20230;SDS011;10274;49.022;9.338;2022-10-04T04:06:27;1.20;;;0.83;;
20230;SDS011;10274;49.022;9.338;2022-10-04T04:09:02;0.90;;;0.90;;
20230;SDS011;10274;49.022;9.338;2022-10-04T04:11:32;1.50;;;1.40;;
20230;SDS011;10274;49.022;9.338;2022-10-04T04:14:02;1.43;;;1.20;;
20230;SDS011;10274;49.022;9.338;2022-10-04T04:16:32;1.20;;;1.13;;
20230;SDS011;10274;49.022;9.338;2022-10-04T04:19:02;1.20;;;1.00;;
20230;SDS011;10274;49.022;9.338;2022-10-04T04:21:36;1.27;;;0.97;;
20230;SDS011;10274;49.022;9.338;2022-10-04T04:24:04;2.97;;;1.10;;
20230;SDS011;10274;49.022;9.338;2022-10-04T04:26:41;1.10;;;0.90;;
20230;SDS011;10274;49.022;9.338;2022-10-04T04:29:11;0.97;;;0.80;;
20230;SDS011;10274;49.022;9.338;2022-10-04T04:31:43;2.27;;;1.70;;
20230;SDS011;10274;49.022;9.338;2022-10-04T04:34:17;1.37;;;1.27;;
20230;SDS011;10274;49.022;9.338;2022-10-04T04:36:46;0.73;;;0.73;;
20230;SDS011;10274;49.022;9.338;2022-10-04T04:39:14;1.37;;;1.17;;
20230;SDS011;10274;49.022;9.338;2022-10-04T04:42:12;2.63;;;1.10;;
20230;SDS011;10274;49.022;9.338;2022-10-04T04:44:45;0.97;;;0.97;;
20230;SDS011;10274;49.022;9.338;2022-10-04T04:47:18;1.93;;;1.53;;
20230;SDS011;10274;49.022;9.338;2022-10-04T04:49:52;1.53;;;1.20;;
20230;SDS011;10274;49.022;9.338;2022-10-04T04:52:20;1.00;;;0.93;;
20230;SDS011;10274;49.022;9.338;2022-10-04T04:54:52;1.00;;;0.93;;
20230;SDS011;10274;49.022;9.338;2022-10-04T04:57:21;2.57;;;1.77;;
20230;SDS011;10274;49.022;9.338;2022-10-04T04:59:52;1.57;;;1.30;;
20230;SDS011;10274;49.022;9.338;2022-10-04T05:02:28;1.63;;;1.30;;
20230;SDS011;10274;49.022;9.338;2022-10-04T05:05:09;1.33;;;1.03;;
20230;SDS011;10274;49.022;9.338;2022-10-04T05:07:43;1.37;;;0.97;;
20230;SDS011;10274;49.022;9.338;2022-10-04T05:10:27;1.37;;;1.27;;
20230;SDS011;10274;49.022;9.338;2022-10-04T05:12:58;1.13;;;1.03;;
20230;SDS011;10274;49.022;9.338;2022-10-04T05:15:26;0.93;;;0.90;;
20230;SDS011;10274;49.022;9.338;2022-10-04T05:17:57;0.77;;;0.70;;
20230;SDS011;10274;49.022;9.338;2022-10-04T05:20:24;2.73;;;1.37;;
20230;SDS011;10274;49.022;9.338;2022-10-04T05:22:52;2.17;;;1.70;;
20230;SDS011;10274;49.022;9.338;2022-10-04T05:25:22;1.10;;;1.00;;
20230;SDS011;10274;49.022;9.338;2022-10-04T05:27:53;1.10;;;1.00;;
20230;SDS011;10274;49.022;9.338;2022-10-04T05:30:40;1.57;;;1.20;;
20230;SDS011;10274;49.022;9.338;2022-10-04T05:33:13;1.97;;;1.70;;
20230;SDS011;10274;49.022;9.338;2022-10-04T05:35:52;1.57;;;1.40;;
20230;SDS011;10274;49.022;9.338;2022-10-04T05:38:45;1.43;;;1.33;;
20230;SDS011;10274;49.022;9.338;2022-10-04T05:41:18;1.20;;;1.10;;
20230;SDS011;10274;49.022;9.338;2022-10-04T05:43:50;1.27;;;1.17;;
20230;SDS011;10274;49.022;9.338;2022-10-04T05:46:22;1.10;;;1.00;;
20230;SDS011;10274;49.022;9.338;2022-10-04T05:48:53;1.47;;;1.33;;
20230;SDS011;10274;49.022;9.338;2022-10-04T05:51:24;0.87;;;0.70;;
20230;SDS011;10274;49.022;9.338;2022-10-04T05:53:54;1.33;;;1.17;;
20230;SDS011;10274;49.022;9.338;2022-10-04T05:56:33;1.07;;;1.07;;
20230;SDS011;10274;49.022;9.338;2022-10-04T05:59:34;1.20;;;1.00;;
20230;SDS011;10274;49.022;9.338;2022-10-04T06:02:15;1.33;;;1.07;;
20230;SDS011;10274;49.022;9.338;2022-10-04T06:04:59;1.63;;;1.50;;
20230;SDS011;10274;49.022;9.338;2022-10-04T06:07:37;2.47;;;1.33;;
20230;SDS011;10274;49.022;9.338;2022-10-04T06:10:18;0.93;;;0.90;;
20230;SDS011;10274;49.022;9.338;2022-10-04T06:13:03;1.27;;;1.07;;
20230;SDS011;10274;49.022;9.338;2022-10-04T06:18:40;0.83;;;0.83;;
20230;SDS011;10274;49.022;9.338;2022-10-04T06:21:20;1.43;;;1.27;;
20230;SDS011;10274;49.022;9.338;2022-10-04T06:23:51;2.90;;;1.70;;
20230;SDS011;10274;49.022;9.338;2022-10-04T06:26:24;1.50;;;1.30;;
20230;SDS011;10274;49.022;9.338;2022-10-04T06:28:55;2.33;;;1.90;;
20230;SDS011;10274;49.022;9.338;2022-10-04T06:34:33;2.33;;;1.97;;
20230;SDS011;10274;49.022;9.338;2022-10-04T06:37:27;2.17;;;1.83;;
20230;SDS011;10274;49.022;9.338;2022-10-04T06:46:00;1.53;;;1.43;;
20230;SDS011;10274;49.022;9.338;2022-10-04T06:55:00;2.23;;;1.60;;
20230;SDS011;10274;49.022;9.338;2022-10-04T06:57:56;1.50;;;1.40;;
20230;SDS011;10274;49.022;9.338;2022-10-04T07:00:35;2.10;;;1.57;;
20230;SDS011;10274;49.022;9.338;2022-10-04T07:03:11;1.90;;;1.43;;
20230;SDS011;10274;49.022;9.338;2022-10-04T07:05:41;2.03;;;1.80;;
20230;SDS011;10274;49.022;9.338;2022-10-04T07:08:15;1.03;;;0.97;;
20230;SDS011;10274;49.022;9.338;2022-10-04T07:10:55;1.20;;;1.10;;
20230;SDS011;10274;49.022;9.338;2022-10-04T07:13:29;1.87;;;1.30;;
20230;SDS011;10274;49.022;9.338;2022-10-04T07:16:05;1.73;;;1.43;;
20230;SDS011;10274;49.022;9.338;2022-10-04T07:18:40;1.70;;;1.30;;
20230;SDS011;10274;49.022;9.338;2022-10-04T07:21:11;1.50;;;1.40;;
20230;SDS011;10274;49.022;9.338;2022-10-04T07:23:45;1.40;;;1.30;;
20230;SDS011;10274;49.022;9.338;2022-10-04T07:26:16;1.17;;;1.03;;
20230;SDS011;10274;49.022;9.338;2022-10-04T07:28:49;1.40;;;1.30;;
20230;SDS011;10274;49.022;9.338;2022-10-04T07:31:34;4.17;;;2.80;;
20230;SDS011;10274;49.022;9.338;2022-10-04T07:34:07;2.60;;;2.30;;
20230;SDS011;10274;49.022;9.338;2022-10-04T07:36:37;2.53;;;2.33;;
20230;SDS011;10274;49.022;9.338;2022-10-04T07:39:11;2.83;;;2.33;;
20230;SDS011;10274;49.022;9.338;2022-10-04T07:41:45;2.40;;;2.13;;
20230;SDS011;10274;49.022;9.338;2022-10-04T07:44:17;6.83;;;4.17;;
20230;SDS011;10274;49.022;9.338;2022-10-04T07:46:52;2.37;;;1.97;;
20230;SDS011;10274;49.022;9.338;2022-10-04T07:49:23;1.27;;;1.17;;
20230;SDS011;10274;49.022;9.338;2022-10-04T07:55:04;2.83;;;1.63;;
20230;SDS011;10274;49.022;9.338;2022-10-04T07:57:41;3.03;;;2.20;;
20230;SDS011;10274;49.022;9.338;2022-10-04T08:00:15;2.77;;;2.27;;
20230;SDS011;10274;49.022;9.338;2022-10-04T08:02:49;1.50;;;1.40;;
20230;SDS011;10274;49.022;9.338;2022-10-04T08:05:26;1.43;;;1.33;;
20230;SDS011;10274;49.022;9.338;2022-10-04T08:08:03;1.70;;;1.60;;
20230;SDS011;10274;49.022;9.338;2022-10-04T08:10:51;1.50;;;1.40;;
20230;SDS011;10274;49.022;9.338;2022-10-04T08:13:25;1.73;;;1.57;;
20230;SDS011;10274;49.022;9.338;2022-10-04T08:16:01;1.93;;;1.20;;
20230;SDS011;10274;49.022;9.338;2022-10-04T08:18:39;1.97;;;1.70;;
20230;SDS011;10274;49.022;9.338;2022-10-04T08:21:13;2.20;;;2.00;;
20230;SDS011;10274;49.022;9.338;2022-10-04T08:23:45;2.23;;;1.50;;
20230;SDS011;10274;49.022;9.338;2022-10-04T08:26:32;1.97;;;1.10;;
20230;SDS011;10274;49.022;9.338;2022-10-04T08:29:22;1.10;;;0.87;;
20230;SDS011;10274;49.022;9.338;2022-10-04T08:32:16;1.33;;;1.10;;
20230;SDS011;10274;49.022;9.338;2022-10-04T08:34:56;1.53;;;1.30;;
20230;SDS011;10274;49.022;9.338;2022-10-04T08:37:49;1.13;;;1.00;;
20230;SDS011;10274;49.022;9.338;2022-10-04T08:40:45;0.93;;;0.90;;
20230;SDS011;10274;49.022;9.338;2022-10-04T08:46:39;0.77;;;0.77;;
20230;SDS011;10274;49.022;9.338;2022-10-04T08:49:34;1.27;;;1.03;;
20230;SDS011;10274;49.022;9.338;2022-10-04T08:52:28;0.90;;;0.70;;
20230;SDS011;10274;49.022;9.338;2022-10-04T08:55:23;1.43;;;1.33;;
20230;SDS011;10274;49.022;9.338;2022-10-04T09:01:10;1.70;;;1.00;;
20230;SDS011;10274;49.022;9.338;2022-10-04T09:04:13;0.73;;;0.70;;
20230;SDS011;10274;49.022;9.338;2022-10-04T09:07:21;1.53;;;0.60;;
20230;SDS011;10274;49.022;9.338;2022-10-04T09:10:13;0.60;;;0.60;;
20230;SDS011;10274;49.022;9.338;2022-10-04T09:13:11;0.83;;;0.83;;
20230;SDS011;10274;49.022;9.338;2022-10-04T09:15:54;0.70;;;0.70;;
20230;SDS011;10274;49.022;9.338;2022-10-04T09:18:45;1.00;;;0.57;;
20230;SDS011;10274;49.022;9.338;2022-10-04T09:21:19;0.60;;;0.57;;
20230;SDS011;10274;49.022;9.338;2022-10-04T09:24:19;1.50;;;1.10;;
20230;SDS011;10274;49.022;9.338;2022-10-04T09:27:15;0.40;;;0.40;;
20230;SDS011;10274;49.022;9.338;2022-10-04T09:29:55;2.20;;;0.60;;
20230;SDS011;10274;49.022;9.338;2022-10-04T09:32:36;0.93;;;0.57;;
20230;SDS011;10274;49.022;9.338;2022-10-04T09:35:31;0.60;;;0.60;;
20230;SDS011;10274;49.022;9.338;2022-10-04T09:38:41;1.23;;;0.80;;
20230;SDS011;10274;49.022;9.338;2022-10-04T09:41:29;2.97;;;1.00;;
20230;SDS011;10274;49.022;9.338;2022-10-04T09:44:27;1.37;;;0.80;;
20230;SDS011;10274;49.022;9.338;2022-10-04T09:47:25;1.30;;;1.20;;
20230;SDS011;10274;49.022;9.338;2022-10-04T09:53:22;0.50;;;0.50;;
20230;SDS011;10274;49.022;9.338;2022-10-04T09:56:10;0.90;;;0.77;;
20230;SDS011;10274;49.022;9.338;2022-10-04T10:02:01;1.00;;;0.87;;
20230;SDS011;10274;49.022;9.338;2022-10-04T10:04:54;1.43;;;1.03;;
20230;SDS011;10274;49.022;9.338;2022-10-04T10:07:37;1.07;;;0.93;;
20230;SDS011;10274;49.022;9.338;2022-10-04T10:10:16;0.60;;;0.60;;
20230;SDS011;10274;49.022;9.338;2022-10-04T10:13:12;1.43;;;1.00;;
20230;SDS011;10274;49.022;9.338;2022-10-04T10:16:14;0.87;;;0.70;;
20230;SDS011;10274;49.022;9.338;2022-10-04T10:18:53;1.30;;;0.73;;
20230;SDS011;10274;49.022;9.338;2022-10-04T10:21:35;1.00;;;0.80;;
20230;SDS011;10274;49.022;9.338;2022-10-04T10:24:36;1.47;;;0.73;;
20230;SDS011;10274;49.022;9.338;2022-10-04T10:27:30;1.00;;;0.90;;
20230;SDS011;10274;49.022;9.338;2022-10-04T10:30:20;1.27;;;0.90;;
20230;SDS011;10274;49.022;9.338;2022-10-04T10:32:54;0.93;;;0.90;;
20230;SDS011;10274;49.022;9.338;2022-10-04T10:38:40;1.67;;;1.00;;
20230;SDS011;10274;49.022;9.338;2022-10-04T10:41:28;0.73;;;0.70;;
20230;SDS011;10274;49.022;9.338;2022-10-04T10:44:23;0.73;;;0.70;;
20230;SDS011;10274;49.022;9.338;2022-10-04T10:47:03;1.77;;;1.43;;
20230;SDS011;10274;49.022;9.338;2022-10-04T10:49:47;1.17;;;1.07;;
20230;SDS011;10274;49.022;9.338;2022-10-04T10:52:33;1.30;;;1.20;;
20230;SDS011;10274;49.022;9.338;2022-10-04T10:55:47;1.00;;;1.00;;
20230;SDS011;10274;49.022;9.338;2022-10-04T10:58:40;1.60;;;1.00;;
20230;SDS011;10274;49.022;9.338;2022-10-04T11:07:13;0.77;;;0.60;;
20230;SDS011;10274;49.022;9.338;2022-10-04T11:10:20;0.83;;;0.70;;
20230;SDS011;10274;49.022;9.338;2022-10-04T11:13:17;1.17;;;0.80;;
20230;SDS011;10274;49.022;9.338;2022-10-04T11:16:16;0.77;;;0.60;;
20230;SDS011;10274;49.022;9.338;2022-10-04T11:19:12;0.73;;;0.73;;
20230;SDS011;10274;49.022;9.338;2022-10-04T11:22:08;0.70;;;0.70;;
20230;SDS011;10274;49.022;9.338;2022-10-04T11:25:18;1.03;;;0.70;;
20230;SDS011;10274;49.022;9.338;2022-10-04T11:27:54;1.10;;;1.00;;
20230;SDS011;10274;49.022;9.338;2022-10-04T11:30:28;1.80;;;0.97;;
20230;SDS011;10274;49.022;9.338;2022-10-04T11:33:27;0.60;;;0.60;;
20230;SDS011;10274;49.022;9.338;2022-10-04T11:36:21;0.77;;;0.77;;
20230;SDS011;10274;49.022;9.338;2022-10-04T11:39:16;0.73;;;0.50;;
20230;SDS011;10274;49.022;9.338;2022-10-04T11:41:55;0.90;;;0.60;;
20230;SDS011;10274;49.022;9.338;2022-10-04T11:44:34;0.67;;;0.67;;
20230;SDS011;10274;49.022;9.338;2022-10-04T11:47:23;0.73;;;0.73;;
20230;SDS011;10274;49.022;9.338;2022-10-04T11:50:13;1.17;;;0.60;;
20230;SDS011;10274;49.022;9.338;2022-10-04T11:56:13;1.23;;;0.63;;
20230;SDS011;10274;49.022;9.338;2022-10-04T11:58:52;1.47;;;0.77;;
20230;SDS011;10274;49.022;9.338;2022-10-04T12:04:42;0.60;;;0.60;;
20230;SDS011;10274;49.022;9.338;2022-10-04T12:07:42;0.83;;;0.80;;
20230;SDS011;10274;49.022;9.338;2022-10-04T12:10:26;1.10;;;0.77;;
20230;SDS011;10274;49.022;9.338;2022-10-04T12:16:03;0.57;;;0.57;;
20230;SDS011;10274;49.022;9.338;2022-10-04T12:19:12;0.40;;;0.40;;
20230;SDS011;10274;49.022;9.338;2022-10-04T12:22:11;0.63;;;0.63;;
20230;SDS011;10274;49.022;9.338;2022-10-04T12:25:27;1.00;;;0.70;;
20230;SDS011;10274;49.022;9.338;2022-10-04T12:41:37;0.37;;;0.37;;
20230;SDS011;10274;49.022;9.338;2022-10-04T12:44:15;0.63;;;0.63;;
20230;SDS011;10274;49.022;9.338;2022-10-04T12:46:54;1.27;;;0.60;;
20230;SDS011;10274;49.022;9.338;2022-10-04T12:49:33;0.60;;;0.57;;
20230;SDS011;10274;49.022;9.338;2022-10-04T12:52:14;1.07;;;0.80;;
20230;SDS011;10274;49.022;9.338;2022-10-04T12:54:45;0.50;;;0.50;;
20230;SDS011;10274;49.022;9.338;2022-10-04T12:57:25;0.43;;;0.40;;
20230;SDS011;10274;49.022;9.338;2022-10-04T13:00:13;0.57;;;0.57;;
20230;SDS011;10274;49.022;9.338;2022-10-04T13:02:53;1.00;;;0.50;;
20230;SDS011;10274;49.022;9.338;2022-10-04T13:05:40;0.60;;;0.60;;
20230;SDS011;10274;49.022;9.338;2022-10-04T13:08:23;0.60;;;0.57;;
20230;SDS011;10274;49.022;9.338;2022-10-04T13:11:08;2.30;;;0.60;;
20230;SDS011;10274;49.022;9.338;2022-10-04T13:14:04;1.07;;;0.60;;
20230;SDS011;10274;49.022;9.338;2022-10-04T13:16:55;0.60;;;0.60;;
20230;SDS011;10274;49.022;9.338;2022-10-04T13:19:28;0.50;;;0.50;;
20230;SDS011;10274;49.022;9.338;2022-10-04T13:22:02;0.50;;;0.50;;
20230;SDS011;10274;49.022;9.338;2022-10-04T13:24:37;0.40;;;0.40;;
20230;SDS011;10274;49.022;9.338;2022-10-04T13:27:27;1.13;;;0.80;;
20230;SDS011;10274;49.022;9.338;2022-10-04T13:30:00;0.40;;;0.40;;
20230;SDS011;10274;49.022;9.338;2022-10-04T13:32:33;1.23;;;0.70;;
20230;SDS011;10274;49.022;9.338;2022-10-04T13:35:10;0.50;;;0.50;;
20230;SDS011;10274;49.022;9.338;2022-10-04T13:37:43;0.70;;;0.70;;
20230;SDS011;10274;49.022;9.338;2022-10-04T13:40:29;0.50;;;0.50;;
20230;SDS011;10274;49.022;9.338;2022-10-04T13:43:13;0.37;;;0.37;;
20230;SDS011;10274;49.022;9.338;2022-10-04T13:45:58;0.73;;;0.73;;
20230;SDS011;10274;49.022;9.338;2022-10-04T13:48:37;0.60;;;0.60;;
20230;SDS011;10274;49.022;9.338;2022-10-04T13:51:28;0.60;;;0.60;;
20230;SDS011;10274;49.022;9.338;2022-10-04T13:54:36;0.90;;;0.40;;
20230;SDS011;10274;49.022;9.338;2022-10-04T13:57:29;0.38;;;0.38;;
20230;SDS011;10274;49.022;9.338;2022-10-04T14:00:04;0.73;;;0.57;;
20230;SDS011;10274;49.022;9.338;2022-10-04T14:08:35;0.75;;;0.50;;
20230;SDS011;10274;49.022;9.338;2022-10-04T14:11:42;0.38;;;0.38;;
20230;SDS011;10274;49.022;9.338;2022-10-04T14:14:41;0.20;;;0.20;;
20230;SDS011;10274;49.022;9.338;2022-10-04T14:17:32;0.77;;;0.38;;
20230;SDS011;10274;49.022;9.338;2022-10-04T14:29:54;0.68;;;0.50;;
20230;SDS011;10274;49.022;9.338;2022-10-04T14:32:41;0.35;;;0.35;;
20230;SDS011;10274;49.022;9.338;2022-10-04T14:35:33;0.43;;;0.43;;
20230;SDS011;10274;49.022;9.338;2022-10-04T14:44:11;0.30;;;0.30;;
20230;SDS011;10274;49.022;9.338;2022-10-04T14:47:11;1.08;;;0.45;;
20230;SDS011;10274;49.022;9.338;2022-10-04T14:49:54;0.45;;;0.40;;
20230;SDS011;10274;49.022;9.338;2022-10-04T14:52:34;0.77;;;0.77;;
20230;SDS011;10274;49.022;9.338;2022-10-04T14:55:11;1.13;;;0.57;;
20230;SDS011;10274;49.022;9.338;2022-10-04T14:57:51;0.50;;;0.50;;
20230;SDS011;10274;49.022;9.338;2022-10-04T15:00:25;0.40;;;0.40;;
20230;SDS011;10274;49.022;9.338;2022-10-04T15:06:01;0.88;;;0.63;;
20230;SDS011;10274;49.022;9.338;2022-10-04T15:11:38;0.60;;;0.60;;
20230;SDS011;10274;49.022;9.338;2022-10-04T15:17:04;0.80;;;0.50;;
20230;SDS011;10274;49.022;9.338;2022-10-04T15:19:36;0.47;;;0.40;;
20230;SDS011;10274;49.022;9.338;2022-10-04T15:22:20;0.77;;;0.53;;
20230;SDS011;10274;49.022;9.338;2022-10-04T15:24:52;0.40;;;0.40;;
20230;SDS011;10274;49.022;9.338;2022-10-04T15:30:20;0.50;;;0.50;;
20230;SDS011;10274;49.022;9.338;2022-10-04T15:33:19;1.27;;;1.20;;
20230;SDS011;10274;49.022;9.338;2022-10-04T15:36:07;0.43;;;0.43;;
20230;SDS011;10274;49.022;9.338;2022-10-04T15:38:43;0.23;;;0.23;;
20230;SDS011;10274;49.022;9.338;2022-10-04T15:41:16;0.57;;;0.57;;
20230;SDS011;10274;49.022;9.338;2022-10-04T15:43:56;0.40;;;0.40;;
20230;SDS011;10274;49.022;9.338;2022-10-04T15:46:46;1.10;;;0.50;;
20230;SDS011;10274;49.022;9.338;2022-10-04T15:49:30;0.47;;;0.47;;
20230;SDS011;10274;49.022;9.338;2022-10-04T15:52:17;0.63;;;0.47;;
20230;SDS011;10274;49.022;9.338;2022-10-04T15:55:11;0.40;;;0.40;;
20230;SDS011;10274;49.022;9.338;2022-10-04T15:58:03;1.07;;;0.70;;
20230;SDS011;10274;49.022;9.338;2022-10-04T16:00:55;1.93;;;0.70;;
20230;SDS011;10274;49.022;9.338;2022-10-04T16:03:35;0.67;;;0.60;;
20230;SDS011;10274;49.022;9.338;2022-10-04T16:06:11;0.50;;;0.50;;
20230;SDS011;10274;49.022;9.338;2022-10-04T16:08:54;0.53;;;0.53;;
20230;SDS011;10274;49.022;9.338;2022-10-04T16:14:45;0.50;;;0.50;;
20230;SDS011;10274;49.022;9.338;2022-10-04T16:17:27;0.50;;;0.50;;
20230;SDS011;10274;49.022;9.338;2022-10-04T16:20:22;0.83;;;0.60;;
20230;SDS011;10274;49.022;9.338;2022-10-04T16:25:48;0.53;;;0.53;;
20230;SDS011;10274;49.022;9.338;2022-10-04T16:28:17;0.97;;;0.70;;
20230;SDS011;10274;49.022;9.338;2022-10-04T16:31:09;0.50;;;0.50;;
20230;SDS011;10274;49.022;9.338;2022-10-04T16:33:43;0.53;;;0.53;;
20230;SDS011;10274;49.022;9.338;2022-10-04T16:36:26;1.03;;;0.67;;
20230;SDS011;10274;49.022;9.338;2022-10-04T16:39:07;0.80;;;0.80;;
20230;SDS011;10274;49.022;9.338;2022-10-04T16:42:00;0.53;;;0.53;;
20230;SDS011;10274;49.022;9.338;2022-10-04T16:44:31;0.70;;;0.70;;
20230;SDS011;10274;49.022;9.338;2022-10-04T16:47:16;0.60;;;0.60;;
20230;SDS011;10274;49.022;9.338;2022-10-04T16:49:47;0.50;;;0.50;;
20230;SDS011;10274;49.022;9.338;2022-10-04T16:52:24;0.70;;;0.70;;
20230;SDS011;10274;49.022;9.338;2022-10-04T16:55:16;0.60;;;0.60;;
20230;SDS011;10274;49.022;9.338;2022-10-04T17:01:25;0.63;;;0.60;;
20230;SDS011;10274;49.022;9.338;2022-10-04T17:04:21;0.80;;;0.60;;
20230;SDS011;10274;49.022;9.338;2022-10-04T17:06:59;0.70;;;0.70;;
20230;SDS011;10274;49.022;9.338;2022-10-04T17:09:39;1.00;;;0.87;;
20230;SDS011;10274;49.022;9.338;2022-10-04T17:12:15;1.00;;;0.43;;
20230;SDS011;10274;49.022;9.338;2022-10-04T17:17:43;0.80;;;0.80;;
20230;SDS011;10274;49.022;9.338;2022-10-04T17:20:15;0.50;;;0.50;;
20230;SDS011;10274;49.022;9.338;2022-10-04T17:22:57;0.50;;;0.50;;
20230;SDS011;10274;49.022;9.338;2022-10-04T17:25:38;1.00;;;0.90;;
20230;SDS011;10274;49.022;9.338;2022-10-04T17:28:16;1.27;;;0.67;;
20230;SDS011;10274;49.022;9.338;2022-10-04T17:30:53;0.80;;;0.80;;
20230;SDS011;10274;49.022;9.338;2022-10-04T17:33:28;0.80;;;0.80;;
20230;SDS011;10274;49.022;9.338;2022-10-04T17:36:20;0.67;;;0.67;;
20230;SDS011;10274;49.022;9.338;2022-10-04T17:38:59;0.90;;;0.67;;
20230;SDS011;10274;49.022;9.338;2022-10-04T17:41:41;0.67;;;0.60;;
20230;SDS011;10274;49.022;9.338;2022-10-04T17:47:14;0.50;;;0.50;;
20230;SDS011;10274;49.022;9.338;2022-10-04T17:49:49;1.80;;;0.90;;
20230;SDS011;10274;49.022;9.338;2022-10-04T17:52:41;0.77;;;0.77;;
20230;SDS011;10274;49.022;9.338;2022-10-04T17:55:32;0.90;;;0.90;;
20230;SDS011;10274;49.022;9.338;2022-10-04T17:58:12;1.00;;;0.93;;
20230;SDS011;10274;49.022;9.338;2022-10-04T18:00:50;1.70;;;1.60;;
20230;SDS011;10274;49.022;9.338;2022-10-04T18:03:23;3.40;;;2.47;;
20230;SDS011;10274;49.022;9.338;2022-10-04T18:05:59;3.10;;;2.57;;
20230;SDS011;10274;49.022;9.338;2022-10-04T18:08:40;3.60;;;1.73;;